sensor_id;sensor_type;location;lat;lon;timestamp;P1;P2;P0
55449;PMS5003;41318;58.724;50.180;2022-07-21T00:00:16;38.80;32.40;22.40
55449;PMS5003;41318;58.724;50.180;2022-07-21T00:02:47;39.60;34.80;24.40
55449;PMS5003;41318;58.724;50.180;2022-07-21T00:05:37;44.40;35.40;23.00
55449;PMS5003;41318;58.724;50.180;2022-07-21T00:08:30;36.60;33.60;20.80
55449;PMS5003;41318;58.724;50.180;2022-07-21T00:11:01;38.80;33.20;23.40
55449;PMS5003;41318;58.724;50.180;2022-07-21T00:13:34;26.00;25.00;17.40
55449;PMS5003;41318;58.724;50.180;2022-07-21T00:16:05;41.20;35.40;23.40
55449;PMS5003;41318;58.724;50.180;2022-07-21T00:18:36;36.20;32.80;22.20
55449;PMS5003;41318;58.724;50.180;2022-07-21T00:21:26;35.40;31.80;18.00
55449;PMS5003;41318;58.724;50.180;2022-07-21T00:24:16;36.40;28.80;17.60
55449;PMS5003;41318;58.724;50.180;2022-07-21T00:26:47;54.20;42.20;23.40
55449;PMS5003;41318;58.724;50.180;2022-07-21T00:29:18;78.40;64.20;36.40
55449;PMS5003;41318;58.724;50.180;2022-07-21T00:31:50;66.00;53.00;32.60
55449;PMS5003;41318;58.724;50.180;2022-07-21T00:34:21;82.40;70.40;39.60
55449;PMS5003;41318;58.724;50.180;2022-07-21T00:36:52;78.80;60.00;35.20
55449;PMS5003;41318;58.724;50.180;2022-07-21T00:39:24;72.40;55.00;33.40
55449;PMS5003;41318;58.724;50.180;2022-07-21T00:42:23;70.00;54.80;33.20
55449;PMS5003;41318;58.724;50.180;2022-07-21T00:44:55;71.00;53.00;33.00
55449;PMS5003;41318;58.724;50.180;2022-07-21T00:47:28;66.40;51.40;31.40
55449;PMS5003;41318;58.724;50.180;2022-07-21T00:50:00;52.60;41.00;25.00
55449;PMS5003;41318;58.724;50.180;2022-07-21T00:52:50;45.20;37.40;23.20
55449;PMS5003;41318;58.724;50.180;2022-07-21T00:55:21;42.00;35.40;22.00
55449;PMS5003;41318;58.724;50.180;2022-07-21T00:57:53;32.60;28.40;19.00
55449;PMS5003;41318;58.724;50.180;2022-07-21T01:00:26;28.20;25.20;18.00
55449;PMS5003;41318;58.724;50.180;2022-07-21T01:02:58;40.60;33.80;21.40
55449;PMS5003;41318;58.724;50.180;2022-07-21T01:05:29;47.20;37.80;24.00
55449;PMS5003;41318;58.724;50.180;2022-07-21T01:08:19;47.80;38.80;23.00
55449;PMS5003;41318;58.724;50.180;2022-07-21T01:10:51;48.80;38.40;23.20
55449;PMS5003;41318;58.724;50.180;2022-07-21T01:13:22;60.20;44.20;26.40
55449;PMS5003;41318;58.724;50.180;2022-07-21T01:15:53;60.00;42.40;21.40
55449;PMS5003;41318;58.724;50.180;2022-07-21T01:18:25;70.40;50.40;31.80
55449;PMS5003;41318;58.724;50.180;2022-07-21T01:20:57;68.00;49.20;30.60
55449;PMS5003;41318;58.724;50.180;2022-07-21T01:23:32;69.60;52.40;30.20
55449;PMS5003;41318;58.724;50.180;2022-07-21T01:26:23;72.20;54.00;33.60
55449;PMS5003;41318;58.724;50.180;2022-07-21T01:28:54;65.00;51.20;28.80
55449;PMS5003;41318;58.724;50.180;2022-07-21T01:31:45;65.60;49.80;29.00
55449;PMS5003;41318;58.724;50.180;2022-07-21T01:34:17;67.20;51.00;31.00
55449;PMS5003;41318;58.724;50.180;2022-07-21T01:37:07;76.40;56.20;32.00
55449;PMS5003;41318;58.724;50.180;2022-07-21T01:39:39;74.20;54.00;32.00
55449;PMS5003;41318;58.724;50.180;2022-07-21T01:42:28;58.00;45.60;26.20
55449;PMS5003;41318;58.724;50.180;2022-07-21T01:45:00;62.60;48.20;28.80
55449;PMS5003;41318;58.724;50.180;2022-07-21T01:47:31;66.80;49.60;30.40
55449;PMS5003;41318;58.724;50.180;2022-07-21T01:50:03;73.80;55.20;33.60
55449;PMS5003;41318;58.724;50.180;2022-07-21T01:52:34;88.20;75.80;40.40
55449;PMS5003;41318;58.724;50.180;2022-07-21T01:55:25;73.40;61.40;35.80
55449;PMS5003;41318;58.724;50.180;2022-07-21T01:57:57;76.20;63.40;37.00
55449;PMS5003;41318;58.724;50.180;2022-07-21T02:00:28;63.80;50.80;30.00
55449;PMS5003;41318;58.724;50.180;2022-07-21T02:03:00;57.40;46.60;29.80
55449;PMS5003;41318;58.724;50.180;2022-07-21T02:05:31;60.40;49.00;31.20
55449;PMS5003;41318;58.724;50.180;2022-07-21T02:08:02;62.40;50.60;29.80
55449;PMS5003;41318;58.724;50.180;2022-07-21T02:10:34;62.00;49.60;30.80
55449;PMS5003;41318;58.724;50.180;2022-07-21T02:13:06;57.40;46.40;28.80
55449;PMS5003;41318;58.724;50.180;2022-07-21T02:15:58;55.80;46.00;27.20
55449;PMS5003;41318;58.724;50.180;2022-07-21T02:18:29;54.20;42.40;25.40
55449;PMS5003;41318;58.724;50.180;2022-07-21T02:21:19;46.40;39.00;23.40
55449;PMS5003;41318;58.724;50.180;2022-07-21T02:23:52;39.60;31.80;16.00
55449;PMS5003;41318;58.724;50.180;2022-07-21T02:26:23;53.20;41.80;23.20
55449;PMS5003;41318;58.724;50.180;2022-07-21T02:28:54;48.20;37.60;24.80
55449;PMS5003;41318;58.724;50.180;2022-07-21T02:31:25;49.80;41.60;24.00
55449;PMS5003;41318;58.724;50.180;2022-07-21T02:33:56;76.40;55.40;35.00
55449;PMS5003;41318;58.724;50.180;2022-07-21T02:36:46;152.33;129.67;71.00
55449;PMS5003;41318;58.724;50.180;2022-07-21T02:39:36;104.50;94.00;62.00
55449;PMS5003;41318;58.724;50.180;2022-07-21T02:42:07;148.00;127.00;73.00
55449;PMS5003;41318;58.724;50.180;2022-07-21T02:44:37;136.67;119.33;65.67
55449;PMS5003;41318;58.724;50.180;2022-07-21T02:47:09;115.50;102.25;57.50
55449;PMS5003;41318;58.724;50.180;2022-07-21T02:49:41;109.75;95.25;56.00
55449;PMS5003;41318;58.724;50.180;2022-07-21T02:52:12;72.80;62.40;40.40
55449;PMS5003;41318;58.724;50.180;2022-07-21T02:54:44;70.20;55.60;34.20
55449;PMS5003;41318;58.724;50.180;2022-07-21T02:57:34;57.60;47.00;30.60
55449;PMS5003;41318;58.724;50.180;2022-07-21T03:00:23;62.00;48.80;30.80
55449;PMS5003;41318;58.724;50.180;2022-07-21T03:03:13;67.40;52.00;32.00
55449;PMS5003;41318;58.724;50.180;2022-07-21T03:05:46;66.00;51.20;32.20
55449;PMS5003;41318;58.724;50.180;2022-07-21T03:08:19;49.20;41.60;27.00
55449;PMS5003;41318;58.724;50.180;2022-07-21T03:10:50;48.80;40.80;25.20
55449;PMS5003;41318;58.724;50.180;2022-07-21T03:13:21;37.80;33.80;21.00
55449;PMS5003;41318;58.724;50.180;2022-07-21T03:15:53;43.20;37.60;24.40
55449;PMS5003;41318;58.724;50.180;2022-07-21T03:18:24;49.20;41.80;26.20
55449;PMS5003;41318;58.724;50.180;2022-07-21T03:20:56;36.60;34.00;21.60
55449;PMS5003;41318;58.724;50.180;2022-07-21T03:23:27;43.60;37.40;25.60
55449;PMS5003;41318;58.724;50.180;2022-07-21T03:26:17;40.60;35.40;21.80
55449;PMS5003;41318;58.724;50.180;2022-07-21T03:28:48;45.60;38.60;25.20
55449;PMS5003;41318;58.724;50.180;2022-07-21T03:31:19;51.20;43.80;28.80
55449;PMS5003;41318;58.724;50.180;2022-07-21T03:33:50;47.40;39.80;25.00
55449;PMS5003;41318;58.724;50.180;2022-07-21T03:36:21;45.20;38.60;23.60
55449;PMS5003;41318;58.724;50.180;2022-07-21T03:38:53;48.60;39.80;26.00
55449;PMS5003;41318;58.724;50.180;2022-07-21T03:41:24;53.80;44.80;29.80
55449;PMS5003;41318;58.724;50.180;2022-07-21T03:43:55;46.00;38.80;24.20
55449;PMS5003;41318;58.724;50.180;2022-07-21T03:46:26;46.00;39.20;25.00
55449;PMS5003;41318;58.724;50.180;2022-07-21T03:48:57;75.75;67.00;39.00
55449;PMS5003;41318;58.724;50.180;2022-07-21T03:51:28;63.20;51.60;33.20
55449;PMS5003;41318;58.724;50.180;2022-07-21T03:53:59;43.20;37.60;24.40
55449;PMS5003;41318;58.724;50.180;2022-07-21T03:56:32;31.75;30.00;20.00
55449;PMS5003;41318;58.724;50.180;2022-07-21T03:59:22;20.50;20.50;15.25
55449;PMS5003;41318;58.724;50.180;2022-07-21T04:01:53;14.25;13.75;9.75
55449;PMS5003;41318;58.724;50.180;2022-07-21T04:04:24;14.00;14.00;10.00
55449;PMS5003;41318;58.724;50.180;2022-07-21T04:06:55;36.40;33.40;23.20
55449;PMS5003;41318;58.724;50.180;2022-07-21T04:09:26;16.00;16.00;13.75
55449;PMS5003;41318;58.724;50.180;2022-07-21T04:12:16;40.80;36.20;24.60
55449;PMS5003;41318;58.724;50.180;2022-07-21T04:14:47;41.80;36.40;25.00
55449;PMS5003;41318;58.724;50.180;2022-07-21T04:17:18;28.00;28.00;20.00
55449;PMS5003;41318;58.724;50.180;2022-07-21T04:20:09;32.60;31.20;20.80
55449;PMS5003;41318;58.724;50.180;2022-07-21T04:22:41;14.75;14.50;7.00
55449;PMS5003;41318;58.724;50.180;2022-07-21T04:25:13;37.00;34.20;23.80
55449;PMS5003;41318;58.724;50.180;2022-07-21T04:27:45;22.50;21.75;14.75
55449;PMS5003;41318;58.724;50.180;2022-07-21T04:30:17;13.75;13.75;10.25
55449;PMS5003;41318;58.724;50.180;2022-07-21T04:32:49;13.00;13.00;10.00
55449;PMS5003;41318;58.724;50.180;2022-07-21T04:35:20;9.25;9.00;7.00
55449;PMS5003;41318;58.724;50.180;2022-07-21T04:37:51;12.25;12.25;9.75
55449;PMS5003;41318;58.724;50.180;2022-07-21T04:40:23;13.00;13.00;9.50
55449;PMS5003;41318;58.724;50.180;2022-07-21T04:42:54;12.75;12.75;10.00
55449;PMS5003;41318;58.724;50.180;2022-07-21T04:45:25;11.00;11.00;8.25
55449;PMS5003;41318;58.724;50.180;2022-07-21T04:47:57;11.50;11.50;8.25
55449;PMS5003;41318;58.724;50.180;2022-07-21T04:50:28;12.00;12.00;9.00
55449;PMS5003;41318;58.724;50.180;2022-07-21T04:52:59;16.00;16.00;13.25
55449;PMS5003;41318;58.724;50.180;2022-07-21T04:55:30;19.00;19.00;14.75
55449;PMS5003;41318;58.724;50.180;2022-07-21T04:58:01;11.50;11.50;8.75
55449;PMS5003;41318;58.724;50.180;2022-07-21T05:00:33;10.50;10.50;8.25
55449;PMS5003;41318;58.724;50.180;2022-07-21T05:03:04;10.25;10.25;8.00
55449;PMS5003;41318;58.724;50.180;2022-07-21T05:05:54;11.00;11.00;9.00
55449;PMS5003;41318;58.724;50.180;2022-07-21T05:08:26;9.00;9.00;7.00
55449;PMS5003;41318;58.724;50.180;2022-07-21T05:10:58;10.00;10.00;8.00
55449;PMS5003;41318;58.724;50.180;2022-07-21T05:13:29;12.00;12.00;8.75
55449;PMS5003;41318;58.724;50.180;2022-07-21T05:16:19;11.00;11.00;9.00
55449;PMS5003;41318;58.724;50.180;2022-07-21T05:18:50;8.25;8.25;6.75
55449;PMS5003;41318;58.724;50.180;2022-07-21T05:21:21;10.25;10.25;8.25
55449;PMS5003;41318;58.724;50.180;2022-07-21T05:23:52;15.75;15.75;11.25
55449;PMS5003;41318;58.724;50.180;2022-07-21T05:26:42;11.75;10.50;8.25
55449;PMS5003;41318;58.724;50.180;2022-07-21T05:29:14;10.50;10.50;9.25
55449;PMS5003;41318;58.724;50.180;2022-07-21T05:31:45;10.50;10.50;8.50
55449;PMS5003;41318;58.724;50.180;2022-07-21T05:34:16;11.25;11.25;8.75
55449;PMS5003;41318;58.724;50.180;2022-07-21T05:36:47;8.25;8.25;7.00
55449;PMS5003;41318;58.724;50.180;2022-07-21T05:39:19;11.25;11.25;9.00
55449;PMS5003;41318;58.724;50.180;2022-07-21T05:42:08;12.25;12.25;8.50
55449;PMS5003;41318;58.724;50.180;2022-07-21T05:44:39;7.75;7.75;6.00
55449;PMS5003;41318;58.724;50.180;2022-07-21T05:47:10;8.50;8.50;7.00
55449;PMS5003;41318;58.724;50.180;2022-07-21T05:49:41;7.50;7.50;6.50
55449;PMS5003;41318;58.724;50.180;2022-07-21T05:52:30;7.75;7.75;6.50
55449;PMS5003;41318;58.724;50.180;2022-07-21T05:55:03;7.00;7.00;6.25
55449;PMS5003;41318;58.724;50.180;2022-07-21T05:57:35;8.00;8.00;7.00
55449;PMS5003;41318;58.724;50.180;2022-07-21T06:00:25;7.00;7.00;6.00
55449;PMS5003;41318;58.724;50.180;2022-07-21T06:02:56;6.25;6.25;5.00
55449;PMS5003;41318;58.724;50.180;2022-07-21T06:05:27;4.75;4.75;3.50
55449;PMS5003;41318;58.724;50.180;2022-07-21T06:08:00;6.00;6.00;6.00
55449;PMS5003;41318;58.724;50.180;2022-07-21T06:10:50;6.50;6.50;6.00
55449;PMS5003;41318;58.724;50.180;2022-07-21T06:13:21;5.75;5.75;5.25
55449;PMS5003;41318;58.724;50.180;2022-07-21T06:15:52;11.00;11.00;9.50
55449;PMS5003;41318;58.724;50.180;2022-07-21T06:18:24;40.75;36.00;24.50
55449;PMS5003;41318;58.724;50.180;2022-07-21T06:21:14;5.50;5.50;5.00
55449;PMS5003;41318;58.724;50.180;2022-07-21T06:23:45;11.50;11.50;9.00
55449;PMS5003;41318;58.724;50.180;2022-07-21T06:26:17;7.75;7.75;6.00
55449;PMS5003;41318;58.724;50.180;2022-07-21T06:28:48;8.50;8.50;7.00
55449;PMS5003;41318;58.724;50.180;2022-07-21T06:31:19;7.67;7.67;7.33
55449;PMS5003;41318;58.724;50.180;2022-07-21T06:33:51;9.75;9.25;7.00
55449;PMS5003;41318;58.724;50.180;2022-07-21T06:36:22;7.50;7.50;6.75
55449;PMS5003;41318;58.724;50.180;2022-07-21T06:38:53;6.00;6.00;5.50
55449;PMS5003;41318;58.724;50.180;2022-07-21T06:41:24;5.00;5.00;4.75
55449;PMS5003;41318;58.724;50.180;2022-07-21T06:43:55;5.00;5.00;4.25
55449;PMS5003;41318;58.724;50.180;2022-07-21T06:46:35;6.00;5.50;4.25
55449;PMS5003;41318;58.724;50.180;2022-07-21T06:49:06;8.00;8.00;7.00
55449;PMS5003;41318;58.724;50.180;2022-07-21T06:51:37;5.75;5.75;5.50
55449;PMS5003;41318;58.724;50.180;2022-07-21T06:54:09;6.75;6.75;6.25
55449;PMS5003;41318;58.724;50.180;2022-07-21T06:56:40;6.00;6.00;5.75
55449;PMS5003;41318;58.724;50.180;2022-07-21T06:59:29;6.50;6.50;5.00
55449;PMS5003;41318;58.724;50.180;2022-07-21T07:02:18;6.00;6.00;5.50
55449;PMS5003;41318;58.724;50.180;2022-07-21T07:04:49;9.00;9.00;7.25
55449;PMS5003;41318;58.724;50.180;2022-07-21T07:07:38;9.25;9.25;8.25
55449;PMS5003;41318;58.724;50.180;2022-07-21T07:10:10;9.75;9.75;7.50
55449;PMS5003;41318;58.724;50.180;2022-07-21T07:12:41;11.75;11.75;9.00
55449;PMS5003;41318;58.724;50.180;2022-07-21T07:15:13;5.00;5.00;4.50
55449;PMS5003;41318;58.724;50.180;2022-07-21T07:17:44;3.00;3.00;2.50
55449;PMS5003;41318;58.724;50.180;2022-07-21T07:20:15;7.25;7.25;6.25
55449;PMS5003;41318;58.724;50.180;2022-07-21T07:22:46;3.25;3.25;3.25
55449;PMS5003;41318;58.724;50.180;2022-07-21T07:25:17;2.50;2.50;1.50
55449;PMS5003;41318;58.724;50.180;2022-07-21T07:27:49;5.00;5.00;4.50
55449;PMS5003;41318;58.724;50.180;2022-07-21T07:30:21;8.25;8.25;6.00
55449;PMS5003;41318;58.724;50.180;2022-07-21T07:32:52;9.25;9.25;7.25
55449;PMS5003;41318;58.724;50.180;2022-07-21T07:35:23;4.50;4.50;4.00
55449;PMS5003;41318;58.724;50.180;2022-07-21T07:37:54;12.00;12.00;10.25
55449;PMS5003;41318;58.724;50.180;2022-07-21T07:40:25;5.00;5.00;5.00
55449;PMS5003;41318;58.724;50.180;2022-07-21T07:42:56;3.50;3.50;2.75
55449;PMS5003;41318;58.724;50.180;2022-07-21T07:45:28;6.00;6.00;4.00
55449;PMS5003;41318;58.724;50.180;2022-07-21T07:48:02;13.00;12.50;9.25
55449;PMS5003;41318;58.724;50.180;2022-07-21T07:50:33;5.25;5.25;5.25
55449;PMS5003;41318;58.724;50.180;2022-07-21T07:53:05;5.00;5.00;3.50
55449;PMS5003;41318;58.724;50.180;2022-07-21T07:55:36;3.25;3.25;3.00
55449;PMS5003;41318;58.724;50.180;2022-07-21T07:58:09;3.50;3.50;3.00
55449;PMS5003;41318;58.724;50.180;2022-07-21T08:00:40;3.00;3.00;3.00
55449;PMS5003;41318;58.724;50.180;2022-07-21T08:03:11;0.50;0.50;0.25
55449;PMS5003;41318;58.724;50.180;2022-07-21T08:06:00;2.00;2.00;2.00
55449;PMS5003;41318;58.724;50.180;2022-07-21T08:08:34;7.00;7.00;6.25
55449;PMS5003;41318;58.724;50.180;2022-07-21T08:11:06;8.50;8.50;7.25
55449;PMS5003;41318;58.724;50.180;2022-07-21T08:13:37;12.50;12.50;9.25
55449;PMS5003;41318;58.724;50.180;2022-07-21T08:16:08;11.67;11.67;8.00
55449;PMS5003;41318;58.724;50.180;2022-07-21T08:18:39;6.25;6.25;5.00
55449;PMS5003;41318;58.724;50.180;2022-07-21T08:21:10;4.75;4.75;3.50
55449;PMS5003;41318;58.724;50.180;2022-07-21T08:23:42;4.00;4.00;3.75
55449;PMS5003;41318;58.724;50.180;2022-07-21T08:26:13;4.33;4.33;4.00
55449;PMS5003;41318;58.724;50.180;2022-07-21T08:28:44;3.00;3.00;3.00
55449;PMS5003;41318;58.724;50.180;2022-07-21T08:31:15;4.25;4.00;3.00
55449;PMS5003;41318;58.724;50.180;2022-07-21T08:33:47;23.25;21.75;17.25
55449;PMS5003;41318;58.724;50.180;2022-07-21T08:36:18;7.50;7.50;5.25
55449;PMS5003;41318;58.724;50.180;2022-07-21T08:39:07;5.00;5.00;3.75
55449;PMS5003;41318;58.724;50.180;2022-07-21T08:41:57;6.00;6.00;4.50
55449;PMS5003;41318;58.724;50.180;2022-07-21T08:44:29;8.00;8.00;5.25
55449;PMS5003;41318;58.724;50.180;2022-07-21T08:47:00;5.00;5.00;4.00
55449;PMS5003;41318;58.724;50.180;2022-07-21T08:49:31;5.00;5.00;4.50
55449;PMS5003;41318;58.724;50.180;2022-07-21T08:52:06;11.25;11.25;9.75
55449;PMS5003;41318;58.724;50.180;2022-07-21T08:54:38;48.40;41.20;29.60
55449;PMS5003;41318;58.724;50.180;2022-07-21T08:57:27;4.00;4.00;3.25
55449;PMS5003;41318;58.724;50.180;2022-07-21T08:59:59;4.00;4.00;3.50
55449;PMS5003;41318;58.724;50.180;2022-07-21T09:02:48;2.75;2.75;2.50
55449;PMS5003;41318;58.724;50.180;2022-07-21T09:05:21;2.00;2.00;2.00
55449;PMS5003;41318;58.724;50.180;2022-07-21T09:07:53;3.00;3.00;3.00
55449;PMS5003;41318;58.724;50.180;2022-07-21T09:10:26;6.50;6.00;4.50
55449;PMS5003;41318;58.724;50.180;2022-07-21T09:13:02;2.75;2.75;2.25
55449;PMS5003;41318;58.724;50.180;2022-07-21T09:15:34;1.50;1.50;1.00
55449;PMS5003;41318;58.724;50.180;2022-07-21T09:18:12;2.50;2.50;2.50
55449;PMS5003;41318;58.724;50.180;2022-07-21T09:20:52;32.00;30.80;23.20
55449;PMS5003;41318;58.724;50.180;2022-07-21T09:24:37;2.75;2.75;2.50
55449;PMS5003;41318;58.724;50.180;2022-07-21T09:27:12;10.25;10.25;9.50
55449;PMS5003;41318;58.724;50.180;2022-07-21T09:30:22;31.25;30.25;23.00
55449;PMS5003;41318;58.724;50.180;2022-07-21T09:32:53;9.33;9.33;8.33
55449;PMS5003;41318;58.724;50.180;2022-07-21T09:35:24;9.25;9.25;8.00
55449;PMS5003;41318;58.724;50.180;2022-07-21T09:38:10;4.25;4.25;3.50
55449;PMS5003;41318;58.724;50.180;2022-07-21T09:40:47;3.00;3.00;3.00
55449;PMS5003;41318;58.724;50.180;2022-07-21T09:43:30;7.50;7.50;6.25
55449;PMS5003;41318;58.724;50.180;2022-07-21T09:46:03;4.25;4.25;4.00
55449;PMS5003;41318;58.724;50.180;2022-07-21T09:48:53;1.50;1.50;1.00
55449;PMS5003;41318;58.724;50.180;2022-07-21T09:51:26;3.25;3.25;3.00
55449;PMS5003;41318;58.724;50.180;2022-07-21T09:56:30;0.00;0.00;0.00
55449;PMS5003;41318;58.724;50.180;2022-07-21T09:59:04;1.75;1.75;1.00
55449;PMS5003;41318;58.724;50.180;2022-07-21T10:01:39;2.75;2.75;2.25
55449;PMS5003;41318;58.724;50.180;2022-07-21T10:04:18;1.75;1.75;1.75
55449;PMS5003;41318;58.724;50.180;2022-07-21T10:06:50;1.00;1.00;1.00
55449;PMS5003;41318;58.724;50.180;2022-07-21T10:09:22;1.50;1.50;1.50
55449;PMS5003;41318;58.724;50.180;2022-07-21T10:11:53;1.75;1.75;1.00
55449;PMS5003;41318;58.724;50.180;2022-07-21T10:14:43;2.00;2.00;2.00
55449;PMS5003;41318;58.724;50.180;2022-07-21T10:17:15;1.00;1.00;0.50
55449;PMS5003;41318;58.724;50.180;2022-07-21T10:20:08;2.75;2.75;2.75
55449;PMS5003;41318;58.724;50.180;2022-07-21T10:23:10;21.00;20.75;15.75
55449;PMS5003;41318;58.724;50.180;2022-07-21T10:25:43;6.00;6.00;5.50
55449;PMS5003;41318;58.724;50.180;2022-07-21T10:28:21;14.00;14.00;10.50
55449;PMS5003;41318;58.724;50.180;2022-07-21T10:31:30;4.00;4.00;3.25
55449;PMS5003;41318;58.724;50.180;2022-07-21T10:34:01;0.00;0.00;0.00
55449;PMS5003;41318;58.724;50.180;2022-07-21T10:36:44;16.25;15.75;8.00
55449;PMS5003;41318;58.724;50.180;2022-07-21T10:39:35;9.75;9.75;6.25
55449;PMS5003;41318;58.724;50.180;2022-07-21T10:42:16;6.50;5.75;3.75
55449;PMS5003;41318;58.724;50.180;2022-07-21T10:44:47;3.00;3.00;3.00
55449;PMS5003;41318;58.724;50.180;2022-07-21T10:47:22;2.00;2.00;2.00
55449;PMS5003;41318;58.724;50.180;2022-07-21T10:49:56;8.50;8.50;6.50
55449;PMS5003;41318;58.724;50.180;2022-07-21T10:57:46;7.00;7.00;5.25
55449;PMS5003;41318;58.724;50.180;2022-07-21T11:02:55;2.00;2.00;2.00
55449;PMS5003;41318;58.724;50.180;2022-07-21T11:08:36;2.00;2.00;2.00
55449;PMS5003;41318;58.724;50.180;2022-07-21T11:20:11;1.50;1.50;1.00
55449;PMS5003;41318;58.724;50.180;2022-07-21T11:22:20;0.75;0.75;0.50
55449;PMS5003;41318;58.724;50.180;2022-07-21T11:25:02;2.75;2.75;2.00
55449;PMS5003;41318;58.724;50.180;2022-07-21T11:27:46;11.25;11.00;8.50
55449;PMS5003;41318;58.724;50.180;2022-07-21T11:30:20;3.75;3.75;3.00
55449;PMS5003;41318;58.724;50.180;2022-07-21T11:32:54;3.50;3.50;2.50
55449;PMS5003;41318;58.724;50.180;2022-07-21T11:35:45;6.00;6.00;5.00
55449;PMS5003;41318;58.724;50.180;2022-07-21T11:38:16;25.67;25.67;21.33
55449;PMS5003;41318;58.724;50.180;2022-07-21T11:40:47;2.75;2.75;2.25
55449;PMS5003;41318;58.724;50.180;2022-07-21T11:43:17;1.00;1.00;0.33
55449;PMS5003;41318;58.724;50.180;2022-07-21T11:45:52;2.00;2.00;2.00
55449;PMS5003;41318;58.724;50.180;2022-07-21T11:48:32;2.75;2.75;2.00
55449;PMS5003;41318;58.724;50.180;2022-07-21T11:51:04;4.50;4.50;3.50
55449;PMS5003;41318;58.724;50.180;2022-07-21T11:53:36;14.25;14.25;8.50
55449;PMS5003;41318;58.724;50.180;2022-07-21T11:56:15;16.50;15.25;10.00
55449;PMS5003;41318;58.724;50.180;2022-07-21T11:58:48;11.00;11.00;8.00
55449;PMS5003;41318;58.724;50.180;2022-07-21T12:01:20;15.75;15.00;8.75
55449;PMS5003;41318;58.724;50.180;2022-07-21T12:03:52;7.00;7.00;5.50
55449;PMS5003;41318;58.724;50.180;2022-07-21T12:06:23;0.25;0.25;0.25
55449;PMS5003;41318;58.724;50.180;2022-07-21T12:08:54;2.25;2.25;1.75
55449;PMS5003;41318;58.724;50.180;2022-07-21T12:11:32;2.75;2.75;1.75
55449;PMS5003;41318;58.724;50.180;2022-07-21T12:14:03;6.75;6.75;5.50
55449;PMS5003;41318;58.724;50.180;2022-07-21T12:16:46;7.33;7.33;7.00
55449;PMS5003;41318;58.724;50.180;2022-07-21T12:19:17;12.50;12.50;10.00
55449;PMS5003;41318;58.724;50.180;2022-07-21T12:22:07;3.00;3.00;2.75
55449;PMS5003;41318;58.724;50.180;2022-07-21T12:24:54;3.00;3.00;2.25
55449;PMS5003;41318;58.724;50.180;2022-07-21T12:27:25;3.00;3.00;1.75
55449;PMS5003;41318;58.724;50.180;2022-07-21T12:29:58;2.25;2.25;2.00
55449;PMS5003;41318;58.724;50.180;2022-07-21T12:32:48;0.00;0.00;0.00
55449;PMS5003;41318;58.724;50.180;2022-07-21T12:35:45;2.00;2.00;2.00
55449;PMS5003;41318;58.724;50.180;2022-07-21T12:38:34;1.75;1.75;1.00
55449;PMS5003;41318;58.724;50.180;2022-07-21T12:41:08;1.00;1.00;1.00
55449;PMS5003;41318;58.724;50.180;2022-07-21T12:43:39;1.00;1.00;0.00
55449;PMS5003;41318;58.724;50.180;2022-07-21T12:46:11;1.00;1.00;1.00
55449;PMS5003;41318;58.724;50.180;2022-07-21T12:48:43;3.25;3.25;3.00
55449;PMS5003;41318;58.724;50.180;2022-07-21T12:51:15;2.00;2.00;1.75
55449;PMS5003;41318;58.724;50.180;2022-07-21T12:53:51;3.00;3.00;2.00
55449;PMS5003;41318;58.724;50.180;2022-07-21T12:56:41;2.25;2.25;1.75
55449;PMS5003;41318;58.724;50.180;2022-07-21T12:59:30;0.50;0.50;0.50
55449;PMS5003;41318;58.724;50.180;2022-07-21T13:02:01;5.25;5.25;4.50
55449;PMS5003;41318;58.724;50.180;2022-07-21T13:04:51;1.50;1.50;1.50
55449;PMS5003;41318;58.724;50.180;2022-07-21T13:07:41;1.50;1.50;1.50
55449;PMS5003;41318;58.724;50.180;2022-07-21T13:10:30;1.50;1.50;1.50
55449;PMS5003;41318;58.724;50.180;2022-07-21T13:13:19;4.00;4.00;4.00
55449;PMS5003;41318;58.724;50.180;2022-07-21T13:15:51;3.00;3.00;3.00
55449;PMS5003;41318;58.724;50.180;2022-07-21T13:18:22;2.25;2.25;2.00
55449;PMS5003;41318;58.724;50.180;2022-07-21T13:20:54;3.00;3.00;2.00
55449;PMS5003;41318;58.724;50.180;2022-07-21T13:23:25;4.25;4.25;4.00
55449;PMS5003;41318;58.724;50.180;2022-07-21T13:25:57;5.75;5.00;5.00
55449;PMS5003;41318;58.724;50.180;2022-07-21T13:28:28;22.00;22.00;15.00
55449;PMS5003;41318;58.724;50.180;2022-07-21T13:31:19;16.50;16.50;13.00
55449;PMS5003;41318;58.724;50.180;2022-07-21T13:33:51;2.25;2.25;1.75
55449;PMS5003;41318;58.724;50.180;2022-07-21T13:36:22;21.25;21.25;17.75
55449;PMS5003;41318;58.724;50.180;2022-07-21T13:38:54;2.50;2.50;2.00
55449;PMS5003;41318;58.724;50.180;2022-07-21T13:41:25;2.25;2.25;1.50
55449;PMS5003;41318;58.724;50.180;2022-07-21T13:43:56;2.00;2.00;2.00
55449;PMS5003;41318;58.724;50.180;2022-07-21T13:46:27;3.00;3.00;2.25
55449;PMS5003;41318;58.724;50.180;2022-07-21T13:48:58;30.80;27.80;18.80
55449;PMS5003;41318;58.724;50.180;2022-07-21T13:51:30;5.00;5.00;5.00
55449;PMS5003;41318;58.724;50.180;2022-07-21T13:54:01;57.00;47.00;33.25
55449;PMS5003;41318;58.724;50.180;2022-07-21T13:56:51;9.50;9.50;8.00
55449;PMS5003;41318;58.724;50.180;2022-07-21T13:59:22;23.75;23.75;17.00
55449;PMS5003;41318;58.724;50.180;2022-07-21T14:01:53;31.25;30.00;21.25
55449;PMS5003;41318;58.724;50.180;2022-07-21T14:04:24;12.50;12.50;9.25
55449;PMS5003;41318;58.724;50.180;2022-07-21T14:06:55;0.50;0.50;0.00
55449;PMS5003;41318;58.724;50.180;2022-07-21T14:09:26;1.50;1.50;1.00
55449;PMS5003;41318;58.724;50.180;2022-07-21T14:11:58;2.75;2.75;2.50
55449;PMS5003;41318;58.724;50.180;2022-07-21T14:14:33;19.25;19.25;16.50
55449;PMS5003;41318;58.724;50.180;2022-07-21T14:17:24;9.00;9.00;6.00
55449;PMS5003;41318;58.724;50.180;2022-07-21T14:19:55;18.75;18.75;16.50
55449;PMS5003;41318;58.724;50.180;2022-07-21T14:22:47;65.80;58.20;45.60
55449;PMS5003;41318;58.724;50.180;2022-07-21T14:25:19;9.50;9.50;8.50
55449;PMS5003;41318;58.724;50.180;2022-07-21T14:27:52;35.25;32.00;24.25
55449;PMS5003;41318;58.724;50.180;2022-07-21T14:30:28;17.00;17.00;15.25
55449;PMS5003;41318;58.724;50.180;2022-07-21T14:32:59;5.25;5.25;4.75
55449;PMS5003;41318;58.724;50.180;2022-07-21T14:35:48;12.50;12.50;10.75
55449;PMS5003;41318;58.724;50.180;2022-07-21T14:38:22;4.00;4.00;4.00
55449;PMS5003;41318;58.724;50.180;2022-07-21T14:40:56;10.25;10.25;9.25
55449;PMS5003;41318;58.724;50.180;2022-07-21T14:43:27;38.25;34.50;26.00
55449;PMS5003;41318;58.724;50.180;2022-07-21T14:45:59;15.25;15.25;11.00
55449;PMS5003;41318;58.724;50.180;2022-07-21T14:48:30;8.33;8.33;6.67
55449;PMS5003;41318;58.724;50.180;2022-07-21T14:51:02;36.00;33.00;24.00
55449;PMS5003;41318;58.724;50.180;2022-07-21T14:53:33;40.25;35.25;25.00
55449;PMS5003;41318;58.724;50.180;2022-07-21T14:56:04;31.50;30.75;22.75
55449;PMS5003;41318;58.724;50.180;2022-07-21T14:58:35;48.00;41.00;28.60
55449;PMS5003;41318;58.724;50.180;2022-07-21T15:01:06;67.80;59.20;42.40